METAR Data
IDs: Format: Raw Decoded Include TAF

Data at: 1658 UTC 04 Jun 2023

ESKN 041650Z 14010KT CAVOK 14/05 Q1021